createdAt,value
2023-01-06T00:01:33.993Z,88.77
2023-01-06T00:04:40.214Z,88.50
2023-01-06T00:07:45.729Z,88.20
2023-01-06T00:10:50.806Z,87.84
2023-01-06T00:13:56.579Z,87.81
2023-01-06T00:17:02.348Z,88.18
2023-01-06T00:20:08.840Z,88.08
2023-01-06T00:23:14.977Z,87.90
2023-01-06T00:26:22.245Z,88.01
2023-01-06T00:29:29.325Z,87.77
2023-01-06T00:32:35.187Z,87.71
2023-01-06T00:35:40.818Z,87.90
2023-01-06T00:38:46.988Z,87.99
2023-01-06T00:42:11.858Z,87.34
2023-01-06T00:45:18.155Z,87.69
2023-01-06T00:48:25.249Z,87.55
2023-01-06T00:51:31.062Z,87.27
2023-01-06T00:54:36.949Z,87.09
2023-01-06T00:57:42.175Z,87.05
2023-01-06T01:00:47.327Z,86.51
2023-01-06T01:03:54.586Z,86.38
2023-01-06T01:07:01.499Z,86.45
2023-01-06T01:10:06.512Z,86.81
2023-01-06T01:13:12.064Z,87.24
2023-01-06T01:16:24.745Z,87.06
2023-01-06T01:19:30.057Z,86.36
2023-01-06T01:22:35.947Z,86.40
2023-01-06T01:25:41.913Z,86.68
2023-01-06T01:28:48.388Z,86.39
2023-01-06T01:31:53.877Z,86.43
2023-01-06T01:35:00.436Z,86.80
2023-01-06T01:38:05.863Z,86.41
2023-01-06T01:41:11.465Z,86.28
2023-01-06T01:44:20.236Z,86.40
2023-01-06T01:47:25.965Z,87.15
2023-01-06T01:50:43.898Z,87.36
2023-01-06T01:53:57.880Z,87.58
2023-01-06T01:57:07.243Z,86.93
2023-01-06T02:00:12.875Z,86.55
2023-01-06T02:03:19.310Z,86.90
2023-01-06T02:06:28.422Z,87.31
2023-01-06T02:09:54.821Z,87.66
2023-01-06T02:13:05.846Z,87.92
2023-01-06T02:16:23.978Z,88.50
2023-01-06T02:19:54.422Z,88.33
2023-01-06T02:23:29.116Z,87.81
2023-01-06T02:26:54.099Z,87.84
2023-01-06T02:30:18.223Z,87.69
2023-01-06T02:33:41.888Z,87.36
2023-01-06T02:37:10.446Z,87.25
2023-01-06T02:40:37.160Z,87.46
2023-01-06T02:43:59.692Z,87.56
2023-01-06T02:47:35.583Z,87.40
2023-01-06T02:51:01.359Z,87.22
2023-01-06T02:54:33.557Z,87.45
2023-01-06T02:57:52.548Z,87.72
2023-01-06T03:01:06.352Z,87.38
2023-01-06T03:04:13.054Z,87.92
2023-01-06T03:07:19.249Z,88.18
2023-01-06T03:10:28.232Z,88.58
2023-01-06T03:14:05.473Z,87.70
2023-01-06T03:17:12.016Z,87.78
2023-01-06T03:20:19.229Z,88.11
2023-01-06T03:23:24.999Z,88.50
2023-01-06T03:26:31.020Z,88.81
2023-01-06T03:29:37.080Z,88.40
2023-01-06T03:32:49.231Z,88.13
2023-01-06T03:36:31.307Z,87.87
2023-01-06T03:39:41.545Z,87.91
2023-01-06T03:43:23.209Z,87.83
2023-01-06T03:46:46.521Z,88.17
2023-01-06T03:49:57.740Z,88.00
2023-01-06T03:53:08.850Z,88.48
2023-01-06T03:56:27.873Z,88.45
2023-01-06T03:59:40.559Z,88.28
2023-01-06T04:02:45.773Z,87.97
2023-01-06T04:05:54.358Z,88.05
2023-01-06T04:09:00.163Z,88.64
2023-01-06T04:12:25.504Z,89.15
2023-01-06T04:15:36.123Z,89.86
2023-01-06T04:18:40.069Z,90.75
2023-01-06T04:21:47.421Z,91.17
2023-01-06T04:24:52.332Z,91.73
2023-01-06T04:27:59.127Z,91.20
2023-01-06T04:31:03.999Z,91.04
2023-01-06T04:34:09.767Z,90.24
2023-01-06T04:37:16.445Z,89.48
2023-01-06T04:40:23.188Z,88.56
2023-01-06T04:43:28.567Z,89.86
2023-01-06T04:46:34.997Z,89.82
2023-01-06T04:49:40.859Z,89.66
2023-01-06T04:52:46.848Z,89.59
2023-01-06T04:55:54.543Z,89.84
2023-01-06T04:59:00.880Z,90.17
2023-01-06T05:02:06.319Z,90.22
2023-01-06T05:05:12.430Z,89.20
2023-01-06T05:08:18.127Z,89.23
2023-01-06T05:11:29.840Z,88.81
2023-01-06T05:14:36.003Z,89.66
2023-01-06T05:17:41.628Z,90.35
2023-01-06T05:20:46.834Z,90.95
2023-01-06T05:23:53.329Z,90.09
2023-01-06T05:26:58.829Z,91.20
2023-01-06T05:30:04.602Z,90.74
2023-01-06T05:33:09.779Z,90.90
2023-01-06T05:36:19.281Z,90.66
2023-01-06T05:39:24.911Z,90.26
2023-01-06T05:42:32.265Z,90.55
2023-01-06T05:45:38.892Z,90.88
2023-01-06T05:48:45.575Z,91.14
2023-01-06T05:51:51.972Z,90.21
2023-01-06T05:54:57.230Z,90.41
2023-01-06T05:58:03.084Z,90.83
2023-01-06T06:01:08.642Z,90.01
2023-01-06T06:04:14.228Z,91.08
2023-01-06T06:07:19.464Z,91.20
2023-01-06T06:10:26.293Z,91.35
2023-01-06T06:13:32.361Z,93.23
2023-01-06T06:16:39.590Z,92.83
2023-01-06T06:19:45.037Z,91.97
2023-01-06T06:22:51.108Z,92.88
2023-01-06T06:25:57.145Z,93.46
2023-01-06T06:29:03.382Z,92.39
2023-01-06T06:32:09.923Z,91.27
2023-01-06T06:35:16.105Z,90.52
2023-01-06T06:38:20.907Z,90.07
2023-01-06T06:41:26.941Z,91.11
2023-01-06T06:44:31.658Z,91.01
2023-01-06T06:47:37.102Z,91.08
2023-01-06T06:50:43.166Z,91.04
2023-01-06T06:53:50.125Z,91.58
2023-01-06T06:56:55.980Z,91.40
2023-01-06T07:00:01.760Z,91.48
2023-01-06T07:03:07.805Z,90.89
2023-01-06T07:06:13.873Z,90.23
2023-01-06T07:09:19.212Z,89.58
2023-01-06T07:12:24.390Z,90.44
2023-01-06T07:15:30.083Z,91.46
2023-01-06T07:18:36.086Z,91.83
2023-01-06T07:21:41.283Z,92.36
2023-01-06T07:24:46.626Z,92.30
2023-01-06T07:27:51.944Z,91.39
2023-01-06T07:30:58.721Z,90.83
2023-01-06T07:34:03.914Z,90.26
2023-01-06T07:37:09.170Z,90.98
2023-01-06T07:40:14.557Z,91.13
2023-01-06T07:43:25.727Z,90.54
2023-01-06T07:46:30.952Z,90.96
2023-01-06T07:49:37.334Z,90.31
2023-01-06T07:52:43.545Z,90.81
2023-01-06T07:55:49.200Z,91.66
2023-01-06T07:58:54.433Z,90.95
2023-01-06T08:02:00.378Z,90.26
2023-01-06T08:05:06.219Z,91.67
2023-01-06T08:08:11.839Z,91.39
2023-01-06T08:11:17.585Z,91.51
2023-01-06T08:14:23.001Z,91.25
2023-01-06T08:17:29.655Z,91.30
2023-01-06T08:20:35.842Z,91.53
2023-01-06T08:23:41.958Z,92.49
2023-01-06T08:26:46.894Z,91.98
2023-01-06T08:29:53.420Z,91.11
2023-01-06T08:33:00.245Z,90.95
2023-01-06T08:36:14.883Z,90.80
2023-01-06T08:39:20.783Z,89.86
2023-01-06T08:42:27.853Z,89.89
2023-01-06T08:45:32.637Z,89.63
2023-01-06T08:48:38.603Z,90.08
2023-01-06T08:51:43.957Z,89.30
2023-01-06T08:54:51.506Z,89.46
2023-01-06T08:57:57.714Z,89.86
2023-01-06T09:01:02.470Z,90.24
2023-01-06T09:04:07.671Z,89.17
2023-01-06T09:07:14.366Z,88.55
2023-01-06T09:10:20.759Z,88.79
2023-01-06T09:13:26.333Z,89.94
2023-01-06T09:16:31.934Z,90.07
2023-01-06T09:19:37.794Z,90.05
2023-01-06T09:22:43.357Z,90.33
2023-01-06T09:25:49.138Z,89.05
2023-01-06T09:28:54.641Z,89.11
2023-01-06T09:32:01.408Z,88.25
2023-01-06T09:35:07.228Z,89.50
2023-01-06T09:38:13.139Z,89.23
2023-01-06T09:41:56.061Z,90.08
2023-01-06T09:45:23.507Z,89.65
2023-01-06T09:48:33.453Z,90.22
2023-01-06T09:51:39.538Z,89.79
2023-01-06T09:54:48.174Z,89.70
2023-01-06T09:58:00.258Z,90.26
2023-01-06T10:01:10.128Z,90.22
2023-01-06T10:04:15.719Z,90.76
2023-01-06T10:07:43.242Z,90.16
2023-01-06T10:11:05.344Z,90.68
2023-01-06T10:14:56.665Z,90.87
2023-01-06T10:18:09.057Z,90.24
2023-01-06T10:21:22.425Z,90.25
2023-01-06T10:25:07.355Z,89.07
2023-01-06T10:28:19.755Z,88.58
2023-01-06T10:31:29.208Z,88.33
2023-01-06T10:34:42.368Z,88.55
2023-01-06T10:37:54.727Z,88.18
2023-01-06T10:41:01.486Z,88.60
2023-01-06T10:44:07.068Z,89.15
2023-01-06T10:47:12.447Z,88.37
2023-01-06T11:26:17.023Z,87.21
2023-01-06T11:29:32.375Z,86.50
2023-01-06T11:32:41.390Z,86.85
2023-01-06T11:35:48.377Z,87.09
2023-01-06T11:39:03.202Z,87.15
2023-01-06T11:42:21.627Z,86.22
2023-01-06T11:46:01.529Z,85.97
2023-01-06T11:57:56.086Z,83.80
2023-01-06T12:01:06.410Z,83.75
2023-01-06T12:20:11.436Z,84.24
2023-01-06T12:23:29.241Z,84.75
2023-01-06T12:29:01.796Z,84.29
2023-01-06T12:34:54.765Z,86.32
2023-01-06T12:40:59.860Z,84.75
2023-01-06T12:44:27.056Z,84.67
2023-01-06T12:47:43.666Z,85.15
2023-01-06T12:53:25.654Z,85.86
2023-01-06T12:56:35.508Z,85.72
2023-01-06T13:02:54.567Z,83.48
2023-01-06T13:06:08.147Z,83.15
2023-01-06T13:09:23.129Z,83.12
2023-01-06T13:15:33.749Z,84.91
2023-01-06T13:18:46.363Z,84.36
2023-01-06T13:21:51.874Z,84.29
2023-01-06T13:25:12.992Z,83.30
2023-01-06T13:28:40.132Z,82.64
2023-01-06T13:32:28.290Z,81.53
2023-01-06T13:36:00.541Z,80.67
2023-01-06T13:39:10.328Z,80.88
2023-01-06T13:44:43.984Z,80.13
2023-01-06T13:50:15.854Z,79.95
2023-01-06T13:55:51.134Z,79.52
2023-01-06T14:03:57.084Z,78.02
2023-01-06T14:09:32.704Z,78.52
2023-01-06T14:12:38.790Z,77.92
2023-01-06T14:20:51.341Z,77.21
2023-01-06T14:24:13.947Z,77.72
2023-01-06T14:27:20.489Z,77.95
2023-01-06T14:30:09.996Z,77.47
2023-01-06T14:33:19.419Z,76.62
2023-01-06T14:39:06.740Z,75.69
2023-01-06T14:42:36.297Z,76.04
2023-01-06T14:51:19.277Z,76.86
2023-01-06T14:54:38.210Z,77.46
2023-01-06T15:05:53.171Z,74.79
2023-01-06T15:08:42.619Z,75.09
2023-01-06T15:11:51.904Z,75.12
2023-01-06T15:17:24.234Z,74.40
2023-01-06T15:25:36.487Z,74.34
2023-01-06T15:28:42.252Z,73.98
2023-01-06T15:31:52.295Z,73.90
2023-01-06T15:34:58.458Z,74.45
2023-01-06T15:40:35.873Z,74.21
2023-01-06T15:46:25.308Z,75.91
2023-01-06T15:49:44.455Z,74.21
2023-01-06T15:52:55.811Z,73.58
2023-01-06T15:56:06.090Z,75.01
2023-01-06T15:59:11.632Z,74.44
2023-01-06T16:02:16.689Z,73.07
2023-01-06T16:07:54.687Z,71.20
2023-01-06T16:11:00.425Z,71.85
2023-01-06T16:14:13.502Z,71.35
2023-01-06T16:20:06.612Z,74.08
2023-01-06T16:23:10.329Z,74.00
2023-01-06T16:29:06.279Z,74.29
2023-01-06T16:37:13.071Z,72.37
2023-01-06T16:40:18.553Z,71.33
2023-01-06T16:45:55.674Z,72.07
2023-01-06T16:49:01.316Z,73.18
2023-01-06T16:51:36.447Z,71.97
2023-01-06T16:56:51.025Z,71.89
2023-01-06T16:59:56.783Z,72.00
2023-01-06T17:03:02.658Z,71.75
2023-01-06T17:06:08.331Z,71.06
2023-01-06T17:11:45.070Z,67.89
2023-01-06T17:14:51.588Z,67.62
2023-01-06T17:17:58.542Z,68.75
2023-01-06T17:21:04.823Z,66.74
2023-01-06T17:24:33.491Z,67.40
2023-01-06T17:30:15.960Z,69.67
2023-01-06T17:33:25.252Z,70.03
2023-01-06T17:38:57.369Z,70.54
2023-01-06T17:42:03.611Z,70.98
2023-01-06T17:47:40.298Z,70.70
2023-01-06T17:56:36.309Z,69.72
2023-01-06T17:59:41.889Z,68.36
2023-01-06T18:08:26.717Z,66.85
2023-01-06T18:16:45.627Z,67.34
2023-01-06T18:19:51.505Z,67.24
2023-01-06T18:22:57.076Z,67.21
2023-01-06T18:26:03.406Z,68.05
2023-01-06T18:31:36.667Z,65.79
2023-01-06T18:37:09.692Z,64.79
2023-01-06T18:42:52.767Z,65.57
2023-01-06T18:45:59.576Z,66.27
2023-01-06T18:49:05.095Z,66.03
2023-01-06T18:52:10.446Z,66.22
2023-01-06T18:55:16.386Z,65.74
2023-01-06T18:58:34.260Z,66.29
2023-01-06T19:01:46.085Z,65.93
2023-01-06T19:07:35.414Z,67.47
2023-01-06T19:10:42.071Z,69.26
2023-01-06T19:13:29.105Z,69.94
2023-01-06T19:16:52.014Z,70.32
2023-01-06T19:22:40.506Z,69.17
2023-01-06T19:25:55.001Z,69.09
2023-01-06T19:28:47.740Z,70.20
2023-01-06T19:34:24.435Z,69.05
2023-01-06T19:37:33.261Z,69.26
2023-01-06T19:40:43.321Z,69.19
2023-01-06T19:43:50.457Z,70.47
2023-01-06T19:47:01.951Z,71.02
2023-01-06T19:52:47.312Z,72.04
2023-01-06T19:55:52.570Z,72.03
2023-01-06T19:58:58.984Z,70.45
2023-01-06T20:02:13.499Z,69.77
2023-01-06T20:07:55.568Z,69.37
2023-01-06T20:11:01.820Z,69.95
2023-01-06T20:14:07.660Z,71.28
2023-01-06T20:17:13.686Z,70.29
2023-01-06T20:20:20.533Z,70.69
2023-01-06T20:23:27.670Z,71.60
2023-01-06T20:26:33.233Z,72.87
2023-01-06T20:32:05.703Z,73.49
2023-01-06T20:37:39.588Z,73.44
2023-01-06T20:43:13.819Z,72.10
2023-01-06T20:46:21.003Z,72.34
2023-01-06T20:51:52.548Z,73.27
2023-01-06T20:57:24.585Z,73.83
2023-01-06T21:00:30.199Z,73.87
2023-01-06T21:06:01.461Z,73.08
2023-01-06T21:09:07.540Z,71.74
2023-01-06T21:12:12.733Z,70.98
2023-01-06T21:15:21.869Z,70.93
2023-01-06T21:18:27.950Z,70.48
2023-01-06T21:21:33.356Z,69.83
2023-01-06T21:24:39.238Z,71.37
2023-01-06T21:27:45.572Z,71.36
2023-01-06T21:30:51.263Z,71.30
2023-01-06T21:36:25.547Z,71.55
2023-01-06T21:42:15.637Z,71.68
2023-01-06T21:45:23.961Z,71.82
2023-01-06T21:48:31.470Z,71.81
2023-01-06T21:51:37.359Z,71.82
2023-01-06T21:57:10.236Z,73.03
2023-01-06T22:00:16.700Z,73.33
2023-01-06T22:05:49.159Z,73.53
2023-01-06T22:11:20.259Z,74.15
2023-01-06T22:16:54.728Z,74.60
2023-01-06T22:22:28.499Z,74.15
2023-01-06T22:28:00.264Z,74.45
2023-01-06T22:33:35.765Z,73.30
2023-01-06T22:39:07.511Z,72.09
2023-01-06T22:44:41.065Z,69.59
2023-01-06T22:47:47.702Z,68.53
2023-01-06T22:53:19.743Z,66.96
2023-01-06T22:58:54.931Z,69.52
2023-01-06T23:04:25.957Z,69.22
2023-01-06T23:07:30.984Z,69.23
2023-01-06T23:13:03.301Z,69.82
2023-01-06T23:18:36.798Z,70.09
2023-01-06T23:21:46.005Z,70.35
2023-01-06T23:24:52.282Z,70.67
2023-01-06T23:27:59.018Z,70.17
2023-01-06T23:31:05.212Z,70.54
2023-01-06T23:34:13.243Z,70.66
2023-01-06T23:37:19.098Z,70.51
2023-01-06T23:40:25.975Z,69.45
2023-01-06T23:45:57.058Z,68.85
2023-01-06T23:49:02.552Z,69.24
2023-01-06T23:54:34.000Z,70.12
